sensor_id;sensor_type;location;lat;lon;timestamp;temperature;humidity
73780;SHT30;62093;37.614;15.072;2023-02-28T00:01:26;15.65;57.03
73780;SHT30;62093;37.614;15.072;2023-02-28T00:03:52;15.68;57.32
73780;SHT30;62093;37.614;15.072;2023-02-28T00:06:19;15.67;57.17
73780;SHT30;62093;37.614;15.072;2023-02-28T00:08:46;15.70;57.06
73780;SHT30;62093;37.614;15.072;2023-02-28T00:11:14;15.65;57.24
73780;SHT30;62093;37.614;15.072;2023-02-28T00:13:43;15.65;57.23
73780;SHT30;62093;37.614;15.072;2023-02-28T00:16:14;15.67;57.38
73780;SHT30;62093;37.614;15.072;2023-02-28T00:18:41;15.65;57.45
73780;SHT30;62093;37.614;15.072;2023-02-28T00:21:08;15.65;57.45
73780;SHT30;62093;37.614;15.072;2023-02-28T00:23:34;15.64;57.38
73780;SHT30;62093;37.614;15.072;2023-02-28T00:26:01;15.65;57.58
73780;SHT30;62093;37.614;15.072;2023-02-28T00:28:27;15.65;57.38
73780;SHT30;62093;37.614;15.072;2023-02-28T00:30:53;15.68;57.76
73780;SHT30;62093;37.614;15.072;2023-02-28T00:33:19;15.63;57.53
73780;SHT30;62093;37.614;15.072;2023-02-28T00:35:46;15.64;57.59
73780;SHT30;62093;37.614;15.072;2023-02-28T00:38:14;15.63;57.47
73780;SHT30;62093;37.614;15.072;2023-02-28T00:40:40;15.61;57.75
73780;SHT30;62093;37.614;15.072;2023-02-28T00:43:07;15.63;57.71
73780;SHT30;62093;37.614;15.072;2023-02-28T00:45:33;15.63;57.67
73780;SHT30;62093;37.614;15.072;2023-02-28T00:47:59;15.63;57.77
73780;SHT30;62093;37.614;15.072;2023-02-28T00:50:25;15.61;57.68
73780;SHT30;62093;37.614;15.072;2023-02-28T00:52:51;15.63;57.80
73780;SHT30;62093;37.614;15.072;2023-02-28T00:55:17;15.61;57.75
73780;SHT30;62093;37.614;15.072;2023-02-28T00:57:44;15.61;57.88
73780;SHT30;62093;37.614;15.072;2023-02-28T01:00:10;15.61;57.83
73780;SHT30;62093;37.614;15.072;2023-02-28T01:02:36;15.63;57.89
73780;SHT30;62093;37.614;15.072;2023-02-28T01:05:03;15.58;57.96
73780;SHT30;62093;37.614;15.072;2023-02-28T01:07:30;15.61;57.83
73780;SHT30;62093;37.614;15.072;2023-02-28T01:09:55;15.60;57.81
73780;SHT30;62093;37.614;15.072;2023-02-28T01:12:24;15.60;58.02
73780;SHT30;62093;37.614;15.072;2023-02-28T01:14:50;15.60;57.93
73780;SHT30;62093;37.614;15.072;2023-02-28T01:17:16;15.58;57.84
73780;SHT30;62093;37.614;15.072;2023-02-28T01:19:42;15.57;57.93
73780;SHT30;62093;37.614;15.072;2023-02-28T01:22:09;15.57;58.05
73780;SHT30;62093;37.614;15.072;2023-02-28T01:24:35;15.58;58.08
73780;SHT30;62093;37.614;15.072;2023-02-28T01:27:01;15.60;58.14
73780;SHT30;62093;37.614;15.072;2023-02-28T01:29:27;15.58;58.13
73780;SHT30;62093;37.614;15.072;2023-02-28T01:31:53;15.57;58.07
73780;SHT30;62093;37.614;15.072;2023-02-28T01:34:19;15.55;58.22
73780;SHT30;62093;37.614;15.072;2023-02-28T01:36:45;15.58;58.08
73780;SHT30;62093;37.614;15.072;2023-02-28T01:39:11;15.57;58.25
73780;SHT30;62093;37.614;15.072;2023-02-28T01:41:39;15.58;58.23
73780;SHT30;62093;37.614;15.072;2023-02-28T01:47:10;15.57;58.30
73780;SHT30;62093;37.614;15.072;2023-02-28T01:49:36;15.57;58.39
73780;SHT30;62093;37.614;15.072;2023-02-28T01:52:03;15.53;58.34
73780;SHT30;62093;37.614;15.072;2023-02-28T01:54:31;15.54;58.40
73780;SHT30;62093;37.614;15.072;2023-02-28T01:57:10;15.55;58.35
73780;SHT30;62093;37.614;15.072;2023-02-28T01:59:42;15.55;58.45
73780;SHT30;62093;37.614;15.072;2023-02-28T02:02:13;15.55;58.44
73780;SHT30;62093;37.614;15.072;2023-02-28T02:04:59;15.57;58.47
73780;SHT30;62093;37.614;15.072;2023-02-28T02:07:33;15.58;58.42
73780;SHT30;62093;37.614;15.072;2023-02-28T02:10:21;15.55;58.46
73780;SHT30;62093;37.614;15.072;2023-02-28T02:16:07;15.57;58.45
73780;SHT30;62093;37.614;15.072;2023-02-28T02:18:32;15.54;58.62
73780;SHT30;62093;37.614;15.072;2023-02-28T02:26:51;15.53;58.54
73780;SHT30;62093;37.614;15.072;2023-02-28T02:37:37;15.49;58.59
73780;SHT30;62093;37.614;15.072;2023-02-28T02:40:11;15.47;58.62
73780;SHT30;62093;37.614;15.072;2023-02-28T02:48:03;15.47;58.50
73780;SHT30;62093;37.614;15.072;2023-02-28T02:50:34;15.47;58.81
73780;SHT30;62093;37.614;15.072;2023-02-28T02:53:02;15.49;58.70
73780;SHT30;62093;37.614;15.072;2023-02-28T02:55:34;15.46;58.84
73780;SHT30;62093;37.614;15.072;2023-02-28T02:58:07;15.51;58.90
73780;SHT30;62093;37.614;15.072;2023-02-28T03:00:38;15.47;58.78
73780;SHT30;62093;37.614;15.072;2023-02-28T03:03:07;15.46;58.93
73780;SHT30;62093;37.614;15.072;2023-02-28T03:05:56;15.49;58.81
73780;SHT30;62093;37.614;15.072;2023-02-28T03:08:23;15.47;58.88
73780;SHT30;62093;37.614;15.072;2023-02-28T03:10:51;15.46;58.87
73780;SHT30;62093;37.614;15.072;2023-02-28T03:16:28;15.44;58.85
73780;SHT30;62093;37.614;15.072;2023-02-28T03:21:34;15.47;59.00
73780;SHT30;62093;37.614;15.072;2023-02-28T03:24:06;15.46;58.90
73780;SHT30;62093;37.614;15.072;2023-02-28T03:26:38;15.46;58.94
73780;SHT30;62093;37.614;15.072;2023-02-28T03:29:14;15.44;58.91
73780;SHT30;62093;37.614;15.072;2023-02-28T03:32:13;15.43;58.96
73780;SHT30;62093;37.614;15.072;2023-02-28T03:34:50;15.44;59.02
73780;SHT30;62093;37.614;15.072;2023-02-28T03:37:20;15.44;58.94
73780;SHT30;62093;37.614;15.072;2023-02-28T03:39:56;15.47;58.96
73780;SHT30;62093;37.614;15.072;2023-02-28T03:42:28;15.46;58.98
73780;SHT30;62093;37.614;15.072;2023-02-28T03:45:00;15.49;59.01
73780;SHT30;62093;37.614;15.072;2023-02-28T03:47:38;15.47;58.99
73780;SHT30;62093;37.614;15.072;2023-02-28T03:50:42;15.47;59.06
73780;SHT30;62093;37.614;15.072;2023-02-28T03:53:20;15.47;58.88
73780;SHT30;62093;37.614;15.072;2023-02-28T03:56:21;15.47;58.97
73780;SHT30;62093;37.614;15.072;2023-02-28T04:01:28;15.43;58.93
73780;SHT30;62093;37.614;15.072;2023-02-28T04:03:56;15.43;58.98
73780;SHT30;62093;37.614;15.072;2023-02-28T04:06:23;15.44;59.07
73780;SHT30;62093;37.614;15.072;2023-02-28T04:08:50;15.44;59.04
73780;SHT30;62093;37.614;15.072;2023-02-28T04:11:21;15.44;58.94
73780;SHT30;62093;37.614;15.072;2023-02-28T04:13:48;15.44;59.04
73780;SHT30;62093;37.614;15.072;2023-02-28T04:16:14;15.44;59.21
73780;SHT30;62093;37.614;15.072;2023-02-28T04:18:40;15.41;58.99
73780;SHT30;62093;37.614;15.072;2023-02-28T04:21:09;15.41;58.90
73780;SHT30;62093;37.614;15.072;2023-02-28T04:23:35;15.44;58.83
73780;SHT30;62093;37.614;15.072;2023-02-28T04:26:01;15.44;59.13
73780;SHT30;62093;37.614;15.072;2023-02-28T04:28:28;15.44;59.01
73780;SHT30;62093;37.614;15.072;2023-02-28T04:31:02;15.43;59.07
73780;SHT30;62093;37.614;15.072;2023-02-28T04:33:29;15.41;59.08
73780;SHT30;62093;37.614;15.072;2023-02-28T04:36:03;15.39;59.10
73780;SHT30;62093;37.614;15.072;2023-02-28T04:38:32;15.43;59.16
73780;SHT30;62093;37.614;15.072;2023-02-28T04:40:59;15.43;58.99
73780;SHT30;62093;37.614;15.072;2023-02-28T04:43:27;15.41;59.12
73780;SHT30;62093;37.614;15.072;2023-02-28T04:45:54;15.40;58.97
73780;SHT30;62093;37.614;15.072;2023-02-28T04:48:25;15.40;59.04
73780;SHT30;62093;37.614;15.072;2023-02-28T04:50:51;15.39;58.99
73780;SHT30;62093;37.614;15.072;2023-02-28T04:53:18;15.40;59.22
73780;SHT30;62093;37.614;15.072;2023-02-28T04:55:44;15.41;59.15
73780;SHT30;62093;37.614;15.072;2023-02-28T04:58:12;15.40;59.18
73780;SHT30;62093;37.614;15.072;2023-02-28T05:00:38;15.40;59.17
73780;SHT30;62093;37.614;15.072;2023-02-28T05:03:04;15.37;59.23
73780;SHT30;62093;37.614;15.072;2023-02-28T05:05:30;15.37;59.15
73780;SHT30;62093;37.614;15.072;2023-02-28T05:07:56;15.39;59.20
73780;SHT30;62093;37.614;15.072;2023-02-28T05:10:23;15.40;59.25
73780;SHT30;62093;37.614;15.072;2023-02-28T05:12:49;15.40;59.30
73780;SHT30;62093;37.614;15.072;2023-02-28T05:15:16;15.36;59.22
73780;SHT30;62093;37.614;15.072;2023-02-28T05:17:42;15.39;58.91
73780;SHT30;62093;37.614;15.072;2023-02-28T05:20:09;15.39;59.23
73780;SHT30;62093;37.614;15.072;2023-02-28T05:22:40;15.41;59.16
73780;SHT30;62093;37.614;15.072;2023-02-28T05:25:08;15.40;59.31
73780;SHT30;62093;37.614;15.072;2023-02-28T05:27:37;15.37;59.32
73780;SHT30;62093;37.614;15.072;2023-02-28T05:30:03;15.39;59.28
73780;SHT30;62093;37.614;15.072;2023-02-28T05:32:30;15.39;59.23
73780;SHT30;62093;37.614;15.072;2023-02-28T05:34:56;15.37;59.30
73780;SHT30;62093;37.614;15.072;2023-02-28T05:37:22;15.40;59.35
73780;SHT30;62093;37.614;15.072;2023-02-28T05:39:48;15.37;59.25
73780;SHT30;62093;37.614;15.072;2023-02-28T05:42:14;15.36;59.42
73780;SHT30;62093;37.614;15.072;2023-02-28T05:44:40;15.36;59.32
73780;SHT30;62093;37.614;15.072;2023-02-28T05:47:07;15.34;59.39
73780;SHT30;62093;37.614;15.072;2023-02-28T05:49:33;15.36;59.35
73780;SHT30;62093;37.614;15.072;2023-02-28T05:52:00;15.34;59.49
73780;SHT30;62093;37.614;15.072;2023-02-28T05:54:26;15.36;59.60
73780;SHT30;62093;37.614;15.072;2023-02-28T05:56:52;15.37;59.71
73780;SHT30;62093;37.614;15.072;2023-02-28T05:59:18;15.37;59.62
73780;SHT30;62093;37.614;15.072;2023-02-28T06:01:46;15.37;59.59
73780;SHT30;62093;37.614;15.072;2023-02-28T06:04:16;15.36;59.71
73780;SHT30;62093;37.614;15.072;2023-02-28T06:06:45;15.37;59.69
73780;SHT30;62093;37.614;15.072;2023-02-28T06:09:12;15.37;59.73
73780;SHT30;62093;37.614;15.072;2023-02-28T06:11:38;15.37;59.83
73780;SHT30;62093;37.614;15.072;2023-02-28T06:14:05;15.36;59.88
73780;SHT30;62093;37.614;15.072;2023-02-28T06:16:32;15.39;59.83
73780;SHT30;62093;37.614;15.072;2023-02-28T06:19:01;15.40;59.84
73780;SHT30;62093;37.614;15.072;2023-02-28T06:21:29;15.39;59.82
73780;SHT30;62093;37.614;15.072;2023-02-28T06:23:56;15.34;59.84
73780;SHT30;62093;37.614;15.072;2023-02-28T06:26:22;15.34;59.85
73780;SHT30;62093;37.614;15.072;2023-02-28T06:28:48;15.36;59.89
73780;SHT30;62093;37.614;15.072;2023-02-28T06:31:16;15.39;59.89
73780;SHT30;62093;37.614;15.072;2023-02-28T06:33:44;15.40;59.94
73780;SHT30;62093;37.614;15.072;2023-02-28T06:36:12;15.39;59.92
73780;SHT30;62093;37.614;15.072;2023-02-28T06:38:39;15.36;59.91
73780;SHT30;62093;37.614;15.072;2023-02-28T06:41:06;15.36;59.86
73780;SHT30;62093;37.614;15.072;2023-02-28T06:43:36;15.37;59.97
73780;SHT30;62093;37.614;15.072;2023-02-28T06:46:05;15.37;59.96
73780;SHT30;62093;37.614;15.072;2023-02-28T06:48:31;15.39;59.99
73780;SHT30;62093;37.614;15.072;2023-02-28T06:53:31;15.39;59.99
73780;SHT30;62093;37.614;15.072;2023-02-28T06:55:57;15.39;59.98
73780;SHT30;62093;37.614;15.072;2023-02-28T06:58:23;15.40;59.99
73780;SHT30;62093;37.614;15.072;2023-02-28T07:00:51;15.39;60.09
73780;SHT30;62093;37.614;15.072;2023-02-28T07:03:18;15.40;60.10
73780;SHT30;62093;37.614;15.072;2023-02-28T07:05:44;15.41;60.04
73780;SHT30;62093;37.614;15.072;2023-02-28T07:08:11;15.39;60.06
73780;SHT30;62093;37.614;15.072;2023-02-28T07:10:38;15.40;60.13
73780;SHT30;62093;37.614;15.072;2023-02-28T07:13:05;15.40;60.13
73780;SHT30;62093;37.614;15.072;2023-02-28T07:15:32;15.40;60.10
73780;SHT30;62093;37.614;15.072;2023-02-28T07:17:58;15.43;60.12
73780;SHT30;62093;37.614;15.072;2023-02-28T07:20:24;15.43;60.14
73780;SHT30;62093;37.614;15.072;2023-02-28T07:22:51;15.43;60.14
73780;SHT30;62093;37.614;15.072;2023-02-28T07:25:23;15.47;60.12
73780;SHT30;62093;37.614;15.072;2023-02-28T07:30:33;15.47;60.15
73780;SHT30;62093;37.614;15.072;2023-02-28T07:32:59;15.47;60.27
73780;SHT30;62093;37.614;15.072;2023-02-28T07:35:25;15.44;60.26
73780;SHT30;62093;37.614;15.072;2023-02-28T07:37:51;15.47;60.26
73780;SHT30;62093;37.614;15.072;2023-02-28T07:40:17;15.49;60.29
73780;SHT30;62093;37.614;15.072;2023-02-28T07:42:44;15.51;60.41
73780;SHT30;62093;37.614;15.072;2023-02-28T07:45:10;15.53;60.37
73780;SHT30;62093;37.614;15.072;2023-02-28T07:47:41;15.49;60.55
73780;SHT30;62093;37.614;15.072;2023-02-28T07:50:11;15.51;60.49
73780;SHT30;62093;37.614;15.072;2023-02-28T07:52:37;15.51;60.47
73780;SHT30;62093;37.614;15.072;2023-02-28T07:55:05;15.47;60.54
73780;SHT30;62093;37.614;15.072;2023-02-28T07:57:32;15.53;60.83
73780;SHT30;62093;37.614;15.072;2023-02-28T07:59:58;15.54;60.50
73780;SHT30;62093;37.614;15.072;2023-02-28T08:02:24;15.53;60.51
73780;SHT30;62093;37.614;15.072;2023-02-28T08:04:51;15.57;60.49
73780;SHT30;62093;37.614;15.072;2023-02-28T08:07:17;15.51;60.55
73780;SHT30;62093;37.614;15.072;2023-02-28T08:09:44;15.53;60.53
73780;SHT30;62093;37.614;15.072;2023-02-28T08:12:11;15.55;60.62
73780;SHT30;62093;37.614;15.072;2023-02-28T08:14:38;15.55;60.51
73780;SHT30;62093;37.614;15.072;2023-02-28T08:17:05;15.58;60.64
73780;SHT30;62093;37.614;15.072;2023-02-28T08:19:32;15.55;60.57
73780;SHT30;62093;37.614;15.072;2023-02-28T08:21:58;15.55;60.82
73780;SHT30;62093;37.614;15.072;2023-02-28T08:24:24;15.57;60.71
73780;SHT30;62093;37.614;15.072;2023-02-28T08:26:50;15.60;60.70
73780;SHT30;62093;37.614;15.072;2023-02-28T08:29:16;15.55;60.63
73780;SHT30;62093;37.614;15.072;2023-02-28T08:31:42;15.55;60.71
73780;SHT30;62093;37.614;15.072;2023-02-28T08:34:10;15.60;60.71
73780;SHT30;62093;37.614;15.072;2023-02-28T08:36:37;15.58;60.77
73780;SHT30;62093;37.614;15.072;2023-02-28T08:39:03;15.61;60.63
73780;SHT30;62093;37.614;15.072;2023-02-28T08:41:29;15.64;60.55
73780;SHT30;62093;37.614;15.072;2023-02-28T08:43:55;15.60;60.61
73780;SHT30;62093;37.614;15.072;2023-02-28T08:46:22;15.64;60.71
73780;SHT30;62093;37.614;15.072;2023-02-28T08:48:52;15.65;60.60
73780;SHT30;62093;37.614;15.072;2023-02-28T08:51:19;15.64;60.70
73780;SHT30;62093;37.614;15.072;2023-02-28T08:53:53;15.63;60.60
73780;SHT30;62093;37.614;15.072;2023-02-28T08:56:20;15.64;60.64
73780;SHT30;62093;37.614;15.072;2023-02-28T08:58:48;15.65;60.61
73780;SHT30;62093;37.614;15.072;2023-02-28T09:01:20;15.65;60.64
73780;SHT30;62093;37.614;15.072;2023-02-28T09:03:48;15.63;60.67
73780;SHT30;62093;37.614;15.072;2023-02-28T09:06:15;15.68;60.65
73780;SHT30;62093;37.614;15.072;2023-02-28T09:08:42;15.67;60.62
73780;SHT30;62093;37.614;15.072;2023-02-28T09:11:09;15.65;60.57
73780;SHT30;62093;37.614;15.072;2023-02-28T09:13:35;15.65;60.70
73780;SHT30;62093;37.614;15.072;2023-02-28T09:16:04;15.71;60.62
73780;SHT30;62093;37.614;15.072;2023-02-28T09:18:30;15.70;60.86
73780;SHT30;62093;37.614;15.072;2023-02-28T09:20:57;15.71;60.78
73780;SHT30;62093;37.614;15.072;2023-02-28T09:23:24;15.74;60.67
73780;SHT30;62093;37.614;15.072;2023-02-28T09:25:53;15.72;60.67
73780;SHT30;62093;37.614;15.072;2023-02-28T09:28:20;15.72;60.72
73780;SHT30;62093;37.614;15.072;2023-02-28T09:30:48;15.75;60.58
73780;SHT30;62093;37.614;15.072;2023-02-28T09:33:16;15.75;60.75
73780;SHT30;62093;37.614;15.072;2023-02-28T09:35:42;15.72;60.93
73780;SHT30;62093;37.614;15.072;2023-02-28T09:38:09;15.74;60.61
73780;SHT30;62093;37.614;15.072;2023-02-28T09:40:59;15.77;60.67
73780;SHT30;62093;37.614;15.072;2023-02-28T09:43:26;15.78;60.60
73780;SHT30;62093;37.614;15.072;2023-02-28T09:46:06;15.80;60.53
73780;SHT30;62093;37.614;15.072;2023-02-28T09:48:39;15.75;60.54
73780;SHT30;62093;37.614;15.072;2023-02-28T09:54:18;15.75;60.53
73780;SHT30;62093;37.614;15.072;2023-02-28T09:57:13;15.74;60.54
73780;SHT30;62093;37.614;15.072;2023-02-28T10:05:07;15.75;60.60
73780;SHT30;62093;37.614;15.072;2023-02-28T10:10:39;15.77;60.52
73780;SHT30;62093;37.614;15.072;2023-02-28T10:13:24;15.75;60.54
73780;SHT30;62093;37.614;15.072;2023-02-28T10:15:59;15.78;60.64
73780;SHT30;62093;37.614;15.072;2023-02-28T10:18:32;15.78;60.61
73780;SHT30;62093;37.614;15.072;2023-02-28T10:21:02;15.78;60.57
73780;SHT30;62093;37.614;15.072;2023-02-28T10:23:34;15.80;60.55
73780;SHT30;62093;37.614;15.072;2023-02-28T10:26:10;15.80;60.54
73780;SHT30;62093;37.614;15.072;2023-02-28T10:28:39;15.82;60.71
73780;SHT30;62093;37.614;15.072;2023-02-28T10:31:11;15.80;60.68
73780;SHT30;62093;37.614;15.072;2023-02-28T10:33:37;15.80;60.78
73780;SHT30;62093;37.614;15.072;2023-02-28T10:36:05;15.81;60.63
73780;SHT30;62093;37.614;15.072;2023-02-28T10:38:39;15.80;60.57
73780;SHT30;62093;37.614;15.072;2023-02-28T10:41:11;15.81;60.57
73780;SHT30;62093;37.614;15.072;2023-02-28T10:43:40;15.84;60.82
73780;SHT30;62093;37.614;15.072;2023-02-28T10:51:10;15.85;60.54
73780;SHT30;62093;37.614;15.072;2023-02-28T10:59:00;15.87;60.49
73780;SHT30;62093;37.614;15.072;2023-02-28T11:02:07;15.87;60.50
73780;SHT30;62093;37.614;15.072;2023-02-28T11:06:59;15.92;60.22
73780;SHT30;62093;37.614;15.072;2023-02-28T11:11:59;15.92;60.17
73780;SHT30;62093;37.614;15.072;2023-02-28T11:14:28;15.91;60.11
73780;SHT30;62093;37.614;15.072;2023-02-28T11:17:00;15.92;60.04
73780;SHT30;62093;37.614;15.072;2023-02-28T11:19:38;15.92;60.06
73780;SHT30;62093;37.614;15.072;2023-02-28T11:22:06;15.95;60.00
73780;SHT30;62093;37.614;15.072;2023-02-28T11:24:41;15.95;59.95
73780;SHT30;62093;37.614;15.072;2023-02-28T11:29:58;15.97;59.94
73780;SHT30;62093;37.614;15.072;2023-02-28T11:32:26;15.95;59.94
73780;SHT30;62093;37.614;15.072;2023-02-28T11:37:36;16.00;59.93
73780;SHT30;62093;37.614;15.072;2023-02-28T11:40:12;16.00;59.94
73780;SHT30;62093;37.614;15.072;2023-02-28T11:46:10;16.00;59.89
73780;SHT30;62093;37.614;15.072;2023-02-28T11:53:50;16.02;59.87
73780;SHT30;62093;37.614;15.072;2023-02-28T12:04:27;16.04;59.87
73780;SHT30;62093;37.614;15.072;2023-02-28T12:12:26;16.06;59.89
73780;SHT30;62093;37.614;15.072;2023-02-28T12:15:11;16.08;59.89
73780;SHT30;62093;37.614;15.072;2023-02-28T12:21:02;16.08;59.96
73780;SHT30;62093;37.614;15.072;2023-02-28T12:31:40;16.09;59.97
73780;SHT30;62093;37.614;15.072;2023-02-28T12:34:12;16.08;59.94
73780;SHT30;62093;37.614;15.072;2023-02-28T12:36:42;16.12;59.89
73780;SHT30;62093;37.614;15.072;2023-02-28T12:39:19;16.11;59.91
73780;SHT30;62093;37.614;15.072;2023-02-28T12:42:05;16.15;59.89
73780;SHT30;62093;37.614;15.072;2023-02-28T12:47:09;16.12;59.78
73780;SHT30;62093;37.614;15.072;2023-02-28T12:49:43;16.08;59.78
73780;SHT30;62093;37.614;15.072;2023-02-28T12:52:13;16.12;59.73
73780;SHT30;62093;37.614;15.072;2023-02-28T12:54:56;16.12;59.69
73780;SHT30;62093;37.614;15.072;2023-02-28T13:00:25;16.11;59.69
73780;SHT30;62093;37.614;15.072;2023-02-28T13:03:18;16.09;59.61
73780;SHT30;62093;37.614;15.072;2023-02-28T13:06:12;16.11;59.64
73780;SHT30;62093;37.614;15.072;2023-02-28T13:09:10;16.11;59.67
73780;SHT30;62093;37.614;15.072;2023-02-28T13:11:41;16.08;59.64
73780;SHT30;62093;37.614;15.072;2023-02-28T13:17:01;16.09;59.54
73780;SHT30;62093;37.614;15.072;2023-02-28T13:19:33;16.09;59.52
73780;SHT30;62093;37.614;15.072;2023-02-28T13:22:01;16.09;59.55
73780;SHT30;62093;37.614;15.072;2023-02-28T13:24:44;16.08;59.48
73780;SHT30;62093;37.614;15.072;2023-02-28T13:27:25;16.11;59.52
73780;SHT30;62093;37.614;15.072;2023-02-28T13:29:57;16.08;59.49
73780;SHT30;62093;37.614;15.072;2023-02-28T13:47:54;16.08;59.51
73780;SHT30;62093;37.614;15.072;2023-02-28T13:53:21;16.09;59.43
73780;SHT30;62093;37.614;15.072;2023-02-28T13:56:23;16.09;59.22
73780;SHT30;62093;37.614;15.072;2023-02-28T13:58:55;16.08;58.99
73780;SHT30;62093;37.614;15.072;2023-02-28T14:01:36;16.09;59.24
73780;SHT30;62093;37.614;15.072;2023-02-28T14:04:40;16.06;59.08
73780;SHT30;62093;37.614;15.072;2023-02-28T14:07:08;16.06;59.18
73780;SHT30;62093;37.614;15.072;2023-02-28T14:09:38;16.06;59.21
73780;SHT30;62093;37.614;15.072;2023-02-28T14:15:39;16.06;59.26
73780;SHT30;62093;37.614;15.072;2023-02-28T14:26:49;16.05;59.02
73780;SHT30;62093;37.614;15.072;2023-02-28T14:37:52;16.06;58.93
73780;SHT30;62093;37.614;15.072;2023-02-28T14:40:33;16.05;58.97
73780;SHT30;62093;37.614;15.072;2023-02-28T14:43:04;16.06;58.82
73780;SHT30;62093;37.614;15.072;2023-02-28T14:45:34;16.06;58.83
73780;SHT30;62093;37.614;15.072;2023-02-28T14:48:02;16.05;58.34
73780;SHT30;62093;37.614;15.072;2023-02-28T14:50:38;16.06;58.71
73780;SHT30;62093;37.614;15.072;2023-02-28T14:53:06;16.06;58.77
73780;SHT30;62093;37.614;15.072;2023-02-28T14:55:44;16.06;58.69
73780;SHT30;62093;37.614;15.072;2023-02-28T14:58:32;16.06;58.43
73780;SHT30;62093;37.614;15.072;2023-02-28T15:01:01;16.09;58.68
73780;SHT30;62093;37.614;15.072;2023-02-28T15:06:03;16.06;58.73
73780;SHT30;62093;37.614;15.072;2023-02-28T15:08:31;16.05;58.04
73780;SHT30;62093;37.614;15.072;2023-02-28T15:11:16;16.05;58.38
73780;SHT30;62093;37.614;15.072;2023-02-28T15:13:47;16.05;58.61
73780;SHT30;62093;37.614;15.072;2023-02-28T15:16:17;16.05;58.31
73780;SHT30;62093;37.614;15.072;2023-02-28T15:18:56;16.05;58.58
73780;SHT30;62093;37.614;15.072;2023-02-28T15:21:29;16.06;58.28
73780;SHT30;62093;37.614;15.072;2023-02-28T15:23:59;16.05;58.27
73780;SHT30;62093;37.614;15.072;2023-02-28T15:26:33;16.05;57.91
73780;SHT30;62093;37.614;15.072;2023-02-28T15:29:03;16.05;58.33
73780;SHT30;62093;37.614;15.072;2023-02-28T15:31:44;16.06;58.29
73780;SHT30;62093;37.614;15.072;2023-02-28T15:34:22;16.09;58.72
73780;SHT30;62093;37.614;15.072;2023-02-28T15:36:48;16.08;58.13
73780;SHT30;62093;37.614;15.072;2023-02-28T15:39:23;16.02;58.14
73780;SHT30;62093;37.614;15.072;2023-02-28T15:41:50;16.02;58.52
73780;SHT30;62093;37.614;15.072;2023-02-28T15:46:55;16.04;58.45
73780;SHT30;62093;37.614;15.072;2023-02-28T15:49:23;16.04;58.62
73780;SHT30;62093;37.614;15.072;2023-02-28T15:51:51;16.06;58.74
73780;SHT30;62093;37.614;15.072;2023-02-28T15:54:24;16.06;58.49
73780;SHT30;62093;37.614;15.072;2023-02-28T15:56:55;16.05;58.77
73780;SHT30;62093;37.614;15.072;2023-02-28T15:59:27;16.06;58.73
73780;SHT30;62093;37.614;15.072;2023-02-28T16:04:35;16.06;58.94
73780;SHT30;62093;37.614;15.072;2023-02-28T16:07:05;16.06;59.11
73780;SHT30;62093;37.614;15.072;2023-02-28T16:09:32;16.08;59.20
73780;SHT30;62093;37.614;15.072;2023-02-28T16:12:02;16.09;59.24
73780;SHT30;62093;37.614;15.072;2023-02-28T16:14:29;16.06;59.30
73780;SHT30;62093;37.614;15.072;2023-02-28T16:17:03;16.06;59.39
73780;SHT30;62093;37.614;15.072;2023-02-28T16:19:29;16.04;59.40
73780;SHT30;62093;37.614;15.072;2023-02-28T16:21:56;16.05;59.44
73780;SHT30;62093;37.614;15.072;2023-02-28T16:24:23;16.04;59.64
73780;SHT30;62093;37.614;15.072;2023-02-28T16:26:52;16.05;59.67
73780;SHT30;62093;37.614;15.072;2023-02-28T16:29:32;16.04;59.66
73780;SHT30;62093;37.614;15.072;2023-02-28T16:32:00;16.04;59.72
73780;SHT30;62093;37.614;15.072;2023-02-28T16:34:26;16.02;59.69
73780;SHT30;62093;37.614;15.072;2023-02-28T16:36:53;16.00;59.79
73780;SHT30;62093;37.614;15.072;2023-02-28T16:39:19;16.01;59.87
73780;SHT30;62093;37.614;15.072;2023-02-28T16:41:49;16.01;59.95
73780;SHT30;62093;37.614;15.072;2023-02-28T16:44:27;15.98;59.92
73780;SHT30;62093;37.614;15.072;2023-02-28T16:46:54;15.97;60.06
73780;SHT30;62093;37.614;15.072;2023-02-28T16:49:20;15.97;60.20
73780;SHT30;62093;37.614;15.072;2023-02-28T16:51:46;15.95;60.14
73780;SHT30;62093;37.614;15.072;2023-02-28T16:54:12;15.95;60.29
73780;SHT30;62093;37.614;15.072;2023-02-28T16:56:44;15.95;60.35
73780;SHT30;62093;37.614;15.072;2023-02-28T16:59:11;15.92;60.23
73780;SHT30;62093;37.614;15.072;2023-02-28T17:01:38;15.91;60.40
73780;SHT30;62093;37.614;15.072;2023-02-28T17:04:04;15.91;60.31
73780;SHT30;62093;37.614;15.072;2023-02-28T17:06:31;15.90;60.34
73780;SHT30;62093;37.614;15.072;2023-02-28T17:08:58;15.90;60.46
73780;SHT30;62093;37.614;15.072;2023-02-28T17:11:25;15.87;60.46
73780;SHT30;62093;37.614;15.072;2023-02-28T17:13:52;15.87;60.57
73780;SHT30;62093;37.614;15.072;2023-02-28T17:16:27;15.88;60.49
73780;SHT30;62093;37.614;15.072;2023-02-28T17:18:56;15.85;60.54
73780;SHT30;62093;37.614;15.072;2023-02-28T17:21:22;15.85;60.54
73780;SHT30;62093;37.614;15.072;2023-02-28T17:23:48;15.87;60.56
73780;SHT30;62093;37.614;15.072;2023-02-28T17:26:16;15.84;60.60
73780;SHT30;62093;37.614;15.072;2023-02-28T17:28:46;15.85;60.65
73780;SHT30;62093;37.614;15.072;2023-02-28T17:31:12;15.84;60.66
73780;SHT30;62093;37.614;15.072;2023-02-28T17:33:39;15.84;60.66
73780;SHT30;62093;37.614;15.072;2023-02-28T17:36:06;15.85;60.78
73780;SHT30;62093;37.614;15.072;2023-02-28T17:38:32;15.82;60.68
73780;SHT30;62093;37.614;15.072;2023-02-28T17:40:59;15.84;60.69
73780;SHT30;62093;37.614;15.072;2023-02-28T17:43:26;15.82;60.74
73780;SHT30;62093;37.614;15.072;2023-02-28T17:45:53;15.81;60.72
73780;SHT30;62093;37.614;15.072;2023-02-28T17:48:19;15.82;60.75
73780;SHT30;62093;37.614;15.072;2023-02-28T17:50:46;15.82;60.73
73780;SHT30;62093;37.614;15.072;2023-02-28T17:53:12;15.82;60.76
73780;SHT30;62093;37.614;15.072;2023-02-28T17:55:39;15.81;60.79
73780;SHT30;62093;37.614;15.072;2023-02-28T17:58:07;15.81;60.84
73780;SHT30;62093;37.614;15.072;2023-02-28T18:00:34;15.82;60.83
73780;SHT30;62093;37.614;15.072;2023-02-28T18:03:01;15.81;60.83
73780;SHT30;62093;37.614;15.072;2023-02-28T18:05:27;15.82;60.92
73780;SHT30;62093;37.614;15.072;2023-02-28T18:07:53;15.82;60.98
73780;SHT30;62093;37.614;15.072;2023-02-28T18:10:20;15.81;60.91
73780;SHT30;62093;37.614;15.072;2023-02-28T18:12:48;15.81;60.95